Terminal Aerodrome Forecast
Issued by NWS Bismarck, ND

Home | Current Version | Previous Version | Graphics & Text | Print | Product List | Glossary On
Versions: 1 2 3 4 5 6 7 8 9 10 11 12 13 14 15 16 17 18 19 20 21 22 23
077
FTUS43 KBIS 271737
TAFISN
TAF
KISN 271737Z 2718/2818 07005KT P6SM BKN120
     FM272100 08011KT P6SM BKN140
     FM280100 07011KT P6SM VCSH OVC110
     FM280500 07011KT P6SM OVC080
     FM280800 07008KT 3SM BR OVC015
     FM281700 11007KT P6SM BKN015=

USA.gov is the U.S. government's official web portal to all federal, state and local government web resources and services.